createdAt,value
2019-05-21T00:00:11.776Z,40.98
2019-05-21T00:02:40.277Z,34.18
2019-05-21T00:05:09.215Z,28.27
2019-05-21T00:07:37.677Z,24.75
2019-05-21T00:10:07.426Z,28.57
2019-05-21T00:12:35.955Z,23.12
2019-05-21T00:15:04.956Z,22.95
2019-05-21T00:17:33.415Z,29.52
2019-05-21T00:20:02.006Z,22.62
2019-05-21T00:22:30.661Z,22.90
2019-05-21T00:24:59.393Z,23.38
2019-05-21T00:27:28.258Z,23.45
2019-05-21T00:30:33.275Z,21.33
2019-05-21T00:33:37.936Z,23.40
2019-05-21T00:36:44.318Z,21.15
2019-05-21T00:39:49.230Z,20.40
2019-05-21T00:42:30.134Z,24.00
2019-05-21T00:44:58.601Z,22.48
2019-05-21T00:47:27.093Z,18.87
2019-05-21T00:49:56.223Z,20.92
2019-05-21T00:52:24.687Z,18.92
2019-05-21T00:54:53.643Z,17.10
2019-05-21T00:57:22.171Z,20.05
2019-05-21T00:59:50.630Z,18.67
2019-05-21T01:02:19.535Z,17.15
2019-05-21T01:05:00.423Z,19.82
2019-05-21T01:07:18.261Z,25.32
2019-05-21T01:09:46.822Z,21.57
2019-05-21T01:12:15.363Z,19.23
2019-05-21T01:14:43.843Z,20.85
2019-05-21T01:17:12.391Z,21.23
2019-05-21T01:19:40.895Z,19.27
2019-05-21T01:22:09.355Z,20.37
2019-05-21T01:24:37.818Z,18.10
2019-05-21T01:27:06.323Z,22.10
2019-05-21T01:29:34.798Z,20.12
2019-05-21T01:32:03.416Z,16.40
2019-05-21T01:34:32.795Z,18.10
2019-05-21T01:37:01.799Z,19.02
2019-05-21T01:39:30.263Z,21.10
2019-05-21T01:41:58.774Z,18.15
2019-05-21T01:44:27.342Z,17.65
2019-05-21T01:46:55.800Z,19.15
2019-05-21T01:49:24.362Z,19.17
2019-05-21T01:51:52.836Z,18.12
2019-05-21T01:54:21.334Z,20.55
2019-05-21T01:56:49.834Z,20.10
2019-05-21T01:59:18.359Z,16.55
2019-05-21T02:01:46.859Z,17.57
2019-05-21T02:04:15.327Z,18.98
2019-05-21T02:06:44.265Z,19.80
2019-05-21T02:09:12.713Z,19.85
2019-05-21T02:11:41.235Z,18.12
2019-05-21T02:14:09.703Z,21.95
2019-05-21T02:16:38.154Z,20.55
2019-05-21T02:19:06.673Z,17.92
2019-05-21T02:21:35.229Z,17.80
2019-05-21T02:24:03.828Z,18.35
2019-05-21T02:26:32.335Z,16.73
2019-05-21T02:29:00.796Z,23.77
2019-05-21T02:31:29.502Z,22.37
2019-05-21T02:33:57.971Z,17.60
2019-05-21T02:36:26.505Z,17.12
2019-05-21T02:38:55.117Z,19.40
2019-05-21T02:41:23.647Z,16.65
2019-05-21T02:43:52.184Z,20.05
2019-05-21T02:46:20.922Z,19.37
2019-05-21T02:48:49.388Z,28.30
2019-05-21T02:51:17.849Z,17.70
2019-05-21T02:53:46.419Z,21.70
2019-05-21T02:56:14.876Z,21.00
2019-05-21T02:58:43.467Z,21.40
2019-05-21T03:01:17.272Z,21.52
2019-05-21T03:03:43.782Z,25.92
2019-05-21T03:06:14.714Z,22.65
2019-05-21T03:08:42.552Z,23.42
2019-05-21T03:11:11.023Z,32.20
2019-05-21T03:13:39.594Z,25.20
2019-05-21T03:16:08.124Z,25.65
2019-05-21T03:18:36.618Z,28.50
2019-05-21T03:21:05.075Z,24.55
2019-05-21T03:23:33.526Z,32.23
2019-05-21T03:26:02.223Z,32.98
2019-05-21T03:28:30.756Z,30.10
2019-05-21T03:30:59.222Z,30.48
2019-05-21T03:33:27.993Z,28.45
2019-05-21T03:35:56.535Z,30.27
2019-05-21T03:38:25.068Z,32.65
2019-05-21T03:40:53.628Z,36.17
2019-05-21T03:43:22.230Z,40.15
2019-05-21T03:45:50.729Z,31.37
2019-05-21T03:48:19.183Z,28.92
2019-05-21T03:50:47.719Z,27.60
2019-05-21T03:53:16.385Z,30.70
2019-05-21T03:55:45.075Z,27.87
2019-05-21T03:58:13.604Z,34.78
2019-05-21T04:00:42.151Z,29.65
2019-05-21T04:03:10.675Z,30.48
2019-05-21T04:05:39.193Z,25.60
2019-05-21T04:08:07.655Z,28.92
2019-05-21T04:10:36.186Z,31.55
2019-05-21T04:13:08.024Z,29.92
2019-05-21T04:15:56.632Z,30.75
2019-05-21T04:18:26.807Z,25.35
2019-05-21T04:20:55.325Z,29.52
2019-05-21T04:23:23.790Z,35.58
2019-05-21T04:25:52.365Z,40.05
2019-05-21T04:28:20.970Z,49.45
2019-05-21T04:30:49.752Z,36.77
2019-05-21T04:33:18.219Z,45.98
2019-05-21T04:35:46.680Z,40.83
2019-05-21T04:38:15.180Z,38.60
2019-05-21T04:40:43.714Z,37.08
2019-05-21T04:43:12.312Z,38.48
2019-05-21T04:45:40.846Z,36.80
2019-05-21T04:48:09.301Z,40.70
2019-05-21T04:50:37.944Z,32.90
2019-05-21T04:53:06.410Z,39.95
2019-05-21T04:55:34.939Z,35.38
2019-05-21T04:58:03.450Z,32.60
2019-05-21T05:00:31.910Z,33.38
2019-05-21T05:03:00.452Z,33.60
2019-05-21T05:05:29.290Z,39.18
2019-05-21T05:07:57.808Z,40.10
2019-05-21T05:10:26.344Z,36.23
2019-05-21T05:12:54.836Z,38.78
2019-05-21T05:15:23.295Z,34.23
2019-05-21T05:17:51.825Z,34.40
2019-05-21T05:20:20.290Z,28.90
2019-05-21T05:22:48.824Z,27.15
2019-05-21T05:25:17.503Z,28.55
2019-05-21T05:27:46.090Z,28.95
2019-05-21T05:30:15.197Z,26.75
2019-05-21T05:32:43.837Z,26.70
2019-05-21T05:35:12.604Z,25.27
2019-05-21T05:37:45.216Z,24.85
2019-05-21T05:42:40.739Z,23.35
2019-05-21T05:45:09.951Z,25.62
2019-05-21T05:47:38.516Z,30.62
2019-05-21T05:50:09.506Z,25.00
2019-05-21T05:52:38.094Z,25.37
2019-05-21T05:55:07.570Z,25.08
2019-05-21T05:57:36.332Z,24.17
2019-05-21T06:00:06.904Z,23.12
2019-05-21T06:02:35.363Z,24.00
2019-05-21T06:05:06.362Z,25.52
2019-05-21T06:07:34.855Z,23.62
2019-05-21T06:10:04.021Z,25.25
2019-05-21T06:12:32.626Z,21.48
2019-05-21T06:15:01.255Z,26.80
2019-05-21T06:17:29.936Z,20.60
2019-05-21T06:19:58.473Z,24.27
2019-05-21T06:22:26.996Z,24.05
2019-05-21T06:24:55.454Z,23.98
2019-05-21T06:27:23.942Z,23.80
2019-05-21T06:29:52.459Z,25.57
2019-05-21T06:32:20.988Z,25.72
2019-05-21T06:34:49.446Z,20.62
2019-05-21T06:37:18.015Z,22.45
2019-05-21T06:39:46.608Z,18.75
2019-05-21T06:42:15.134Z,20.75
2019-05-21T06:44:43.798Z,17.45
2019-05-21T06:47:12.263Z,17.45
2019-05-21T06:49:40.848Z,16.17
2019-05-21T06:52:09.376Z,15.55
2019-05-21T06:54:37.902Z,16.07
2019-05-21T06:57:06.428Z,13.05
2019-05-21T06:59:34.896Z,15.50
2019-05-21T07:02:03.453Z,17.98
2019-05-21T07:04:32.031Z,16.52
2019-05-21T07:07:00.618Z,11.60
2019-05-21T07:09:29.134Z,13.88
2019-05-21T07:11:57.627Z,12.90
2019-05-21T07:14:26.082Z,10.48
2019-05-21T07:16:54.613Z,10.98
2019-05-21T07:19:23.144Z,10.00
2019-05-21T07:21:51.599Z,9.85
2019-05-21T07:24:20.116Z,9.68
2019-05-21T07:26:48.634Z,9.38
2019-05-21T07:29:17.091Z,9.33
2019-05-21T07:31:45.578Z,10.55
2019-05-21T07:34:14.070Z,11.20
2019-05-21T07:36:42.525Z,9.48
2019-05-21T07:39:11.062Z,11.33
2019-05-21T07:41:39.543Z,10.35
2019-05-21T07:44:08.090Z,8.78
2019-05-21T07:46:39.542Z,10.03
2019-05-21T07:51:34.848Z,8.80
2019-05-21T07:54:03.428Z,8.23
2019-05-21T07:56:31.987Z,10.98
2019-05-21T07:59:00.640Z,8.08
2019-05-21T08:01:29.100Z,7.70
2019-05-21T08:03:57.562Z,8.83
2019-05-21T08:06:26.066Z,7.30
2019-05-21T08:09:11.787Z,7.28
2019-05-21T08:13:52.548Z,7.22
2019-05-21T08:16:21.067Z,6.95
2019-05-21T08:18:49.530Z,6.30
2019-05-21T08:21:17.976Z,6.37
2019-05-21T08:23:46.478Z,5.22
2019-05-21T08:26:14.944Z,6.03
2019-05-21T08:28:43.467Z,5.87
2019-05-21T08:31:12.177Z,6.65
2019-05-21T08:33:40.751Z,6.55
2019-05-21T08:36:09.195Z,6.08
2019-05-21T08:38:37.703Z,6.83
2019-05-21T08:41:06.163Z,5.83
2019-05-21T08:43:34.636Z,6.37
2019-05-21T08:46:03.594Z,5.10
2019-05-21T08:48:32.135Z,5.10
2019-05-21T08:51:01.393Z,5.08
2019-05-21T08:53:29.889Z,6.12
2019-05-21T08:55:58.388Z,7.00
2019-05-21T08:58:26.959Z,5.37
2019-05-21T09:00:55.412Z,6.67
2019-05-21T09:03:23.991Z,7.33
2019-05-21T09:05:52.441Z,5.80
2019-05-21T09:08:20.959Z,6.87
2019-05-21T09:10:49.455Z,7.17
2019-05-21T09:13:18.316Z,6.47
2019-05-21T09:15:46.983Z,6.65
2019-05-21T09:18:15.451Z,6.22
2019-05-21T09:20:44.027Z,6.62
2019-05-21T09:23:12.531Z,6.15
2019-05-21T09:25:40.986Z,8.28
2019-05-21T09:28:09.587Z,7.55
2019-05-21T09:30:38.035Z,6.72
2019-05-21T09:33:06.573Z,8.13
2019-05-21T09:35:35.236Z,7.65
2019-05-21T09:38:03.682Z,7.67
2019-05-21T09:40:32.130Z,6.62
2019-05-21T09:43:00.627Z,5.28
2019-05-21T09:45:29.090Z,9.03
2019-05-21T09:47:57.779Z,5.90
2019-05-21T09:50:26.245Z,5.37
2019-05-21T09:52:54.770Z,6.80
2019-05-21T09:55:23.328Z,5.72
2019-05-21T09:57:53.770Z,7.95
2019-05-21T10:00:33.875Z,5.62
2019-05-21T10:03:04.636Z,4.37
2019-05-21T10:05:33.162Z,6.28
2019-05-21T10:08:01.732Z,6.83
2019-05-21T10:10:30.267Z,6.62
2019-05-21T10:12:58.908Z,7.97
2019-05-21T10:15:27.354Z,5.90
2019-05-21T10:17:55.847Z,6.08
2019-05-21T10:20:24.311Z,6.20
2019-05-21T10:22:52.801Z,5.08
2019-05-21T10:25:21.328Z,6.40
2019-05-21T10:27:49.814Z,6.50
2019-05-21T10:30:18.346Z,10.15
2019-05-21T10:32:46.820Z,5.25
2019-05-21T10:35:15.581Z,4.83
2019-05-21T10:37:54.394Z,5.30
2019-05-21T10:42:42.362Z,8.95
2019-05-21T10:45:11.666Z,5.83
2019-05-21T10:47:40.123Z,4.70
2019-05-21T10:50:09.293Z,4.10
2019-05-21T10:52:37.875Z,4.12
2019-05-21T10:55:06.763Z,4.45
2019-05-21T10:57:35.294Z,3.85
2019-05-21T11:00:12.587Z,5.50
2019-05-21T11:02:59.118Z,7.28
2019-05-21T11:05:29.361Z,4.78
2019-05-21T11:10:25.685Z,3.83
2019-05-21T11:12:54.259Z,4.03
2019-05-21T11:15:22.911Z,4.95
2019-05-21T11:18:09.200Z,4.62
2019-05-21T11:20:21.775Z,4.78
2019-05-21T11:22:50.257Z,3.98
2019-05-21T11:25:18.754Z,3.40
2019-05-21T11:27:47.566Z,4.35
2019-05-21T11:30:16.483Z,3.92
2019-05-21T11:32:47.811Z,5.20
2019-05-21T11:35:16.023Z,4.20
2019-05-21T11:37:47.666Z,4.10
2019-05-21T11:40:15.467Z,3.35
2019-05-21T11:42:44.018Z,3.93
2019-05-21T11:45:30.716Z,3.55
2019-05-21T11:47:44.760Z,4.55
2019-05-21T11:50:13.654Z,3.30
2019-05-21T11:52:42.217Z,4.85
2019-05-21T11:55:11.222Z,5.58
2019-05-21T11:57:39.678Z,4.80
2019-05-21T12:00:10.334Z,3.25
2019-05-21T12:02:38.913Z,3.58
2019-05-21T12:05:08.661Z,5.28
2019-05-21T12:07:37.209Z,3.25
2019-05-21T12:10:08.624Z,5.05
2019-05-21T12:12:37.137Z,3.55
2019-05-21T12:15:07.529Z,3.98
2019-05-21T12:17:36.063Z,3.50
2019-05-21T12:20:07.561Z,3.33
2019-05-21T12:22:36.078Z,4.87
2019-05-21T12:25:06.219Z,3.98
2019-05-21T12:27:34.673Z,6.80
2019-05-21T12:30:04.940Z,3.02
2019-05-21T12:32:33.464Z,3.87
2019-05-21T12:35:01.954Z,3.70
2019-05-21T12:37:30.552Z,4.30
2019-05-21T12:39:59.046Z,3.40
2019-05-21T12:42:27.536Z,3.40
2019-05-21T12:44:56.750Z,3.22
2019-05-21T12:47:25.290Z,3.67
2019-05-21T12:49:53.744Z,3.55
2019-05-21T12:52:22.453Z,4.62
2019-05-21T12:54:50.913Z,6.03
2019-05-21T12:57:19.488Z,3.83
2019-05-21T12:59:48.144Z,5.15
2019-05-21T13:02:16.594Z,5.08
2019-05-21T13:04:45.128Z,4.60
2019-05-21T13:07:13.638Z,5.40
2019-05-21T13:09:42.330Z,5.17
2019-05-21T13:12:10.863Z,5.55
2019-05-21T13:14:39.325Z,3.87
2019-05-21T13:17:07.795Z,3.47
2019-05-21T13:19:36.352Z,3.77
2019-05-21T13:22:05.055Z,3.70
2019-05-21T13:24:33.614Z,3.83
2019-05-21T13:27:02.138Z,5.08
2019-05-21T13:29:30.653Z,6.90
2019-05-21T13:31:59.212Z,4.47
2019-05-21T13:34:27.743Z,4.22
2019-05-21T13:36:56.256Z,5.45
2019-05-21T13:39:25.734Z,3.67
2019-05-21T13:41:54.355Z,4.87
2019-05-21T13:44:22.986Z,3.20
2019-05-21T13:46:51.448Z,5.33
2019-05-21T13:49:19.971Z,4.67
2019-05-21T13:51:48.458Z,3.40
2019-05-21T13:54:16.907Z,3.98
2019-05-21T13:56:45.402Z,3.22
2019-05-21T13:59:13.928Z,3.52
2019-05-21T14:01:42.708Z,5.55
2019-05-21T14:04:11.338Z,3.47
2019-05-21T14:06:40.020Z,5.12
2019-05-21T14:09:09.541Z,3.55
2019-05-21T14:11:38.332Z,4.58
2019-05-21T14:14:07.102Z,3.22
2019-05-21T14:16:35.734Z,4.03
2019-05-21T14:19:04.249Z,3.42
2019-05-21T14:21:33.035Z,3.20
2019-05-21T14:24:01.570Z,4.67
2019-05-21T14:26:30.287Z,6.22
2019-05-21T14:28:58.788Z,4.15
2019-05-21T14:31:27.234Z,2.85
2019-05-21T14:33:55.835Z,3.60
2019-05-21T14:36:24.431Z,3.00
2019-05-21T14:38:53.255Z,3.00
2019-05-21T14:41:21.810Z,3.10
2019-05-21T14:43:50.259Z,3.85
2019-05-21T14:46:18.843Z,5.55
2019-05-21T14:48:47.343Z,5.87
2019-05-21T14:51:15.799Z,3.55
2019-05-21T14:53:44.680Z,3.02
2019-05-21T14:56:13.220Z,3.25
2019-05-21T14:58:41.670Z,4.55
2019-05-21T15:01:10.236Z,4.58
2019-05-21T15:03:38.687Z,2.65
2019-05-21T15:06:07.215Z,3.22
2019-05-21T15:08:35.755Z,4.45
2019-05-21T15:11:04.276Z,2.47
2019-05-21T15:13:32.735Z,6.40
2019-05-21T15:16:02.347Z,3.83
2019-05-21T15:18:30.875Z,4.12
2019-05-21T15:21:04.045Z,3.75
2019-05-21T15:23:32.921Z,4.60
2019-05-21T15:26:01.371Z,2.02
2019-05-21T15:28:29.888Z,3.45
2019-05-21T15:30:58.344Z,4.45
2019-05-21T15:33:26.827Z,2.85
2019-05-21T15:35:55.394Z,2.92
2019-05-21T15:38:23.969Z,3.65
2019-05-21T15:41:08.424Z,1.85
2019-05-21T15:43:23.000Z,2.87
2019-05-21T15:45:51.447Z,2.52
2019-05-21T15:48:19.935Z,3.52
2019-05-21T15:50:48.519Z,1.87
2019-05-21T15:53:16.984Z,2.55
2019-05-21T15:55:45.709Z,2.05
2019-05-21T15:58:14.287Z,2.55
2019-05-21T16:00:42.743Z,3.35
2019-05-21T16:03:11.311Z,2.37
2019-05-21T16:05:39.834Z,2.25
2019-05-21T16:08:08.327Z,4.70
2019-05-21T16:10:36.869Z,5.62
2019-05-21T16:13:05.466Z,4.53
2019-05-21T16:15:33.998Z,2.50
2019-05-21T16:18:02.463Z,3.35
2019-05-21T16:20:31.036Z,4.45
2019-05-21T16:22:59.486Z,2.85
2019-05-21T16:25:27.943Z,1.77
2019-05-21T16:27:56.460Z,3.65
2019-05-21T16:30:25.002Z,3.58
2019-05-21T16:32:53.452Z,2.22
2019-05-21T16:35:21.972Z,5.62
2019-05-21T16:37:50.423Z,4.12
2019-05-21T16:40:19.215Z,6.45
2019-05-21T16:42:47.755Z,4.87
2019-05-21T16:45:17.359Z,5.20
2019-05-21T16:47:46.850Z,5.22
2019-05-21T16:50:16.168Z,9.78
2019-05-21T16:52:44.990Z,4.80
2019-05-21T16:55:13.882Z,5.08
2019-05-21T16:57:42.392Z,6.15
2019-05-21T17:00:13.800Z,4.75
2019-05-21T17:02:42.670Z,4.40
2019-05-21T17:05:11.554Z,5.45
2019-05-21T17:07:40.016Z,4.70
2019-05-21T17:10:09.648Z,5.42
2019-05-21T17:12:38.184Z,5.35
2019-05-21T17:15:08.100Z,4.75
2019-05-21T17:17:36.634Z,5.25
2019-05-21T17:20:08.808Z,4.55
2019-05-21T17:22:37.794Z,14.35
2019-05-21T17:25:07.840Z,4.83
2019-05-21T17:27:36.359Z,4.95
2019-05-21T17:30:11.333Z,11.25
2019-05-21T17:32:39.838Z,7.22
2019-05-21T17:35:08.836Z,6.05
2019-05-21T17:37:37.434Z,4.58
2019-05-21T17:40:07.514Z,5.15
2019-05-21T17:42:36.376Z,5.35
2019-05-21T17:45:11.852Z,4.40
2019-05-21T17:47:40.513Z,5.85
2019-05-21T17:50:09.382Z,6.40
2019-05-21T17:52:37.913Z,6.03
2019-05-21T17:55:07.980Z,4.85
2019-05-21T18:00:07.471Z,4.80
2019-05-21T18:02:36.000Z,4.80
2019-05-21T18:05:07.355Z,5.00
2019-05-21T18:07:37.439Z,4.45
2019-05-21T18:10:07.839Z,8.28
2019-05-21T18:12:36.980Z,8.10
2019-05-21T18:15:08.947Z,4.70
2019-05-21T18:17:37.732Z,4.85
2019-05-21T18:20:08.494Z,4.62
2019-05-21T18:22:39.002Z,5.78
2019-05-21T18:25:08.066Z,4.90
2019-05-21T18:27:36.730Z,3.70
2019-05-21T18:30:07.797Z,7.22
2019-05-21T18:32:36.365Z,6.17
2019-05-21T18:35:06.916Z,5.25
2019-05-21T18:37:36.855Z,6.03
2019-05-21T18:40:32.787Z,3.60
2019-05-21T18:43:01.415Z,4.00
2019-05-21T18:45:29.948Z,3.67
2019-05-21T18:47:58.463Z,3.98
2019-05-21T18:50:35.488Z,3.87
2019-05-21T18:52:57.160Z,3.47
2019-05-21T18:55:25.815Z,3.90
2019-05-21T18:57:54.512Z,5.20
2019-05-21T19:00:23.312Z,5.92
2019-05-21T19:02:51.816Z,5.05
2019-05-21T19:05:20.442Z,4.78
2019-05-21T19:07:48.958Z,4.75
2019-05-21T19:10:17.915Z,9.18
2019-05-21T19:12:46.503Z,5.15
2019-05-21T19:15:15.997Z,4.78
2019-05-21T19:17:44.533Z,4.55
2019-05-21T19:20:13.999Z,9.25
2019-05-21T19:22:42.458Z,6.53
2019-05-21T19:25:11.184Z,5.42
2019-05-21T19:27:39.942Z,4.92
2019-05-21T19:30:08.966Z,4.22
2019-05-21T19:32:37.583Z,5.70
2019-05-21T19:35:06.987Z,6.67
2019-05-21T19:37:35.487Z,6.90
2019-05-21T19:40:06.429Z,5.33
2019-05-21T19:42:34.993Z,5.10
2019-05-21T19:45:07.485Z,5.85
2019-05-21T19:47:36.012Z,7.33
2019-05-21T19:50:06.610Z,10.18
2019-05-21T19:52:35.129Z,7.72
2019-05-21T19:55:05.335Z,9.03
2019-05-21T20:00:01.981Z,6.25
2019-05-21T20:02:30.430Z,9.35
2019-05-21T20:05:00.015Z,7.50
2019-05-21T20:07:29.307Z,7.85
2019-05-21T20:09:59.303Z,7.53
2019-05-21T20:12:27.825Z,7.60
2019-05-21T20:14:56.549Z,5.87
2019-05-21T20:17:28.413Z,6.53
2019-05-21T20:19:56.971Z,6.67
2019-05-21T20:22:26.409Z,6.60
2019-05-21T20:24:55.503Z,9.10
2019-05-21T20:27:24.070Z,9.05
2019-05-21T20:29:53.237Z,8.25
2019-05-21T20:32:23.002Z,6.83
2019-05-21T20:34:51.615Z,6.67
2019-05-21T20:37:21.747Z,6.75
2019-05-21T20:39:51.899Z,6.67
2019-05-21T20:44:50.290Z,6.45
2019-05-21T20:47:19.211Z,8.88
2019-05-21T20:49:48.875Z,9.93
2019-05-21T20:52:19.222Z,7.03
2019-05-21T20:57:16.834Z,7.17
2019-05-21T20:59:45.292Z,6.90
2019-05-21T21:02:14.792Z,7.95
2019-05-21T21:04:43.530Z,7.73
2019-05-21T21:07:12.219Z,7.15
2019-05-21T21:09:41.400Z,6.03
2019-05-21T21:12:11.658Z,5.83
2019-05-21T21:14:40.142Z,7.22
2019-05-21T21:17:10.363Z,5.17
2019-05-21T21:19:40.764Z,5.87
2019-05-21T21:22:09.215Z,7.28
2019-05-21T21:24:38.261Z,4.72
2019-05-21T21:27:07.783Z,4.65
2019-05-21T21:29:36.238Z,6.47
2019-05-21T21:32:04.762Z,5.00
2019-05-21T21:34:33.652Z,8.23
2019-05-21T21:37:04.111Z,5.17
2019-05-21T21:42:01.254Z,5.25
2019-05-21T21:44:33.935Z,5.15
2019-05-21T21:47:00.768Z,6.37
2019-05-21T21:49:31.136Z,5.65
2019-05-21T21:54:27.924Z,7.15
2019-05-21T21:56:56.615Z,6.17
2019-05-21T21:59:25.168Z,6.80
2019-05-21T22:01:56.810Z,6.55
2019-05-21T22:04:30.491Z,8.03
2019-05-21T22:06:59.394Z,6.97
2019-05-21T22:09:29.277Z,6.50
2019-05-21T22:11:58.734Z,6.78
2019-05-21T22:14:28.037Z,6.73
2019-05-21T22:16:57.066Z,5.87
2019-05-21T22:19:26.967Z,7.12
2019-05-21T22:21:56.069Z,7.05
2019-05-21T22:24:24.831Z,7.58
2019-05-21T22:26:53.274Z,6.72
2019-05-21T22:29:21.846Z,9.15
2019-05-21T22:31:50.379Z,7.85
2019-05-21T22:34:18.935Z,8.43
2019-05-21T22:36:47.394Z,8.88
2019-05-21T22:39:26.935Z,12.47
2019-05-21T22:41:55.397Z,10.03
2019-05-21T22:44:23.856Z,10.88
2019-05-21T22:46:52.534Z,11.20
2019-05-21T22:49:21.159Z,9.78
2019-05-21T22:51:50.035Z,11.75
2019-05-21T22:54:18.719Z,12.25
2019-05-21T22:56:47.180Z,17.82
2019-05-21T22:59:15.984Z,14.05
2019-05-21T23:01:46.450Z,17.00
2019-05-21T23:04:16.027Z,15.98
2019-05-21T23:06:44.498Z,16.40
2019-05-21T23:09:13.193Z,15.58
2019-05-21T23:11:41.655Z,18.27
2019-05-21T23:14:10.291Z,19.25
2019-05-21T23:16:39.263Z,19.80
2019-05-21T23:19:08.630Z,21.45
2019-05-21T23:21:37.155Z,22.62
2019-05-21T23:24:08.336Z,18.92
2019-05-21T23:26:37.534Z,23.42
2019-05-21T23:29:06.710Z,21.35
2019-05-21T23:31:35.203Z,23.47
2019-05-21T23:34:03.883Z,21.85
2019-05-21T23:36:32.655Z,23.25
2019-05-21T23:39:03.098Z,22.52
2019-05-21T23:41:32.656Z,24.67
2019-05-21T23:44:01.819Z,27.65
2019-05-21T23:46:30.343Z,26.05
2019-05-21T23:48:58.802Z,25.95
2019-05-21T23:51:27.299Z,28.10
2019-05-21T23:53:55.891Z,31.48
2019-05-21T23:56:24.366Z,26.62
2019-05-21T23:58:52.830Z,28.85
